Time;durP1;ratioP1;P1;durP2;ratioP2;P2;SDS_P1;SDS_P2;PMS_P1;PMS_P2;Temp;Humidity;BMP_temperature;BMP_pressure;BME280_temperature;BME280_humidity;BME280_pressure;Samples;Min_cycle;Max_cycle;Signal;HPM_P1;HPM_P2
2022/11/21 00:00:24;;;;;;;39.90;13.60;;;;;;;-6.57;100.00;98663.57;104002;1328;22509;-35
2022/11/21 00:02:50;;;;;;;42.90;16.10;;;;;;;-6.59;100.00;98659.86;104290;1328;22274;-36
2022/11/21 00:05:16;;;;;;;54.00;18.00;;;;;;;-6.62;100.00;98660.43;104258;1334;22550;-32
2022/11/21 00:07:41;;;;;;;52.10;19.20;;;;;;;-6.64;100.00;98652.04;104271;1323;22317;-31
2022/11/21 00:10:07;;;;;;;49.40;17.90;;;;;;;-6.62;100.00;98647.55;104249;1335;22210;-33
2022/11/21 00:12:33;;;;;;;34.30;12.80;;;;;;;-6.58;100.00;98647.41;103788;1335;22234;-32
2022/11/21 00:14:59;;;;;;;55.20;19.10;;;;;;;-6.50;100.00;98646.39;104295;1334;22064;-31
2022/11/21 00:17:24;;;;;;;36.30;13.80;;;;;;;-6.49;100.00;98644.41;104057;1320;22425;-36
2022/11/21 00:19:50;;;;;;;43.00;17.80;;;;;;;-6.48;100.00;98642.27;104238;1327;22510;-32
2022/11/21 00:22:15;;;;;;;37.40;13.20;;;;;;;-6.50;100.00;98641.86;104168;1334;22573;-32
2022/11/21 00:24:41;;;;;;;38.10;14.30;;;;;;;-6.49;100.00;98645.08;104226;1334;22572;-32
2022/11/21 00:27:07;;;;;;;57.80;17.50;;;;;;;-6.48;100.00;98646.39;104225;1320;22907;-35
2022/11/21 00:29:33;;;;;;;49.00;18.00;;;;;;;-6.48;100.00;98651.09;103965;1335;22529;-32
2022/11/21 00:31:58;;;;;;;52.90;18.70;;;;;;;-6.50;100.00;98650.55;103226;1330;22499;-35
2022/11/21 00:34:24;;;;;;;48.10;15.70;;;;;;;-6.51;100.00;98652.23;104236;1334;22132;-36
2022/11/21 00:36:49;;;;;;;61.20;19.30;;;;;;;-6.57;100.00;98647.34;104063;1335;22490;-36
2022/11/21 00:39:15;;;;;;;37.80;14.90;;;;;;;-6.62;100.00;98647.87;104258;1320;22525;-32
2022/11/21 00:41:41;;;;;;;46.80;16.70;;;;;;;-6.64;100.00;98643.88;104266;1326;22427;-32
2022/11/21 00:44:06;;;;;;;49.10;17.00;;;;;;;-6.67;100.00;98649.45;104264;1334;22060;-32
2022/11/21 00:46:32;;;;;;;54.30;20.60;;;;;;;-6.69;100.00;98647.69;104268;1329;22205;-32
2022/11/21 00:48:57;;;;;;;53.40;18.60;;;;;;;-6.69;100.00;98647.36;104296;1334;23020;-32
2022/11/21 00:51:23;;;;;;;43.10;15.60;;;;;;;-6.69;100.00;98643.14;104264;1334;22540;-32
2022/11/21 00:53:49;;;;;;;44.50;16.20;;;;;;;-6.68;100.00;98644.98;104073;1334;24281;-31
2022/11/21 00:56:15;;;;;;;80.20;25.00;;;;;;;-6.66;100.00;98638.79;103149;1335;22046;-32
2022/11/21 00:58:41;;;;;;;47.30;19.50;;;;;;;-6.66;100.00;98636.70;104063;1330;22155;-35
2022/11/21 01:01:10;;;;;;;52.80;21.00;;;;;;;-6.68;100.00;98634.38;104259;1335;22695;-34
2022/11/21 01:03:35;;;;;;;56.40;19.50;;;;;;;-6.66;100.00;98631.61;104079;1319;22144;-35
2022/11/21 01:06:04;;;;;;;56.90;19.40;;;;;;;-6.64;100.00;98628.03;103062;1334;22496;-37
2022/11/21 01:08:30;;;;;;;57.40;21.40;;;;;;;-6.62;100.00;98629.78;104261;1330;22283;-36
2022/11/21 01:10:56;;;;;;;47.30;19.70;;;;;;;-6.59;100.00;98623.28;103499;1334;22518;-32
2022/11/21 01:13:21;;;;;;;52.10;20.40;;;;;;;-6.58;100.00;98619.05;103912;1333;22183;-32
2022/11/21 01:15:47;;;;;;;69.30;23.10;;;;;;;-6.54;100.00;98613.25;104102;1335;22615;-35
2022/11/21 01:18:12;;;;;;;57.70;19.40;;;;;;;-6.50;100.00;98612.63;104054;1327;22169;-35
2022/11/21 01:20:39;;;;;;;72.90;22.70;;;;;;;-6.48;100.00;98608.42;104260;1327;22161;-35
2022/11/21 01:23:05;;;;;;;90.20;22.60;;;;;;;-6.47;100.00;98598.61;104249;1334;22513;-32
2022/11/21 01:25:33;;;;;;;94.50;24.80;;;;;;;-6.45;100.00;98599.54;103325;1320;22511;-32
2022/11/21 01:27:58;;;;;;;95.60;29.90;;;;;;;-6.43;100.00;98599.54;103929;1334;22189;-36
2022/11/21 01:30:24;;;;;;;86.60;25.10;;;;;;;-6.44;100.00;98594.07;104293;1335;22139;-34
2022/11/21 01:32:50;;;;;;;82.20;23.70;;;;;;;-6.45;100.00;98597.08;104330;1334;22273;-31
2022/11/21 01:35:16;;;;;;;56.00;15.70;;;;;;;-6.47;100.00;98594.98;104229;1330;22662;-30
2022/11/21 01:37:41;;;;;;;103.20;27.80;;;;;;;-6.44;100.00;98598.01;104314;1325;22195;-34
2022/11/21 01:40:08;;;;;;;125.40;21.80;;;;;;;-6.43;100.00;98597.95;104108;1334;22060;-31
2022/11/21 01:42:40;;;;;;;78.70;22.70;;;;;;;-6.45;100.00;98594.77;104294;1330;22198;-34
2022/11/21 01:45:13;;;;;;;65.60;21.20;;;;;;;-6.49;100.00;98591.98;104253;1335;22509;-34
2022/11/21 01:47:38;;;;;;;39.20;15.10;;;;;;;-6.50;100.00;98596.76;104162;1334;22502;-30
2022/11/21 01:50:04;;;;;;;76.50;21.80;;;;;;;-6.50;100.00;98598.80;104285;1330;22422;-34
2022/11/21 01:52:30;;;;;;;81.70;20.80;;;;;;;-6.50;100.00;98602.32;104269;1334;22074;-31
2022/11/21 01:54:59;;;;;;;107.20;27.50;;;;;;;-6.49;100.00;98600.88;103716;1334;22229;-30
2022/11/21 01:57:28;;;;;;;70.60;21.90;;;;;;;-6.51;100.00;98595.92;104014;1330;22527;-34
2022/11/21 01:59:59;;;;;;;52.30;18.40;;;;;;;-6.53;100.00;98591.89;104014;1334;22510;-31
2022/11/21 02:02:28;;;;;;;42.20;15.80;;;;;;;-6.54;100.00;98587.48;104096;1329;22622;-35
2022/11/21 02:04:53;;;;;;;126.60;28.40;;;;;;;-6.56;100.00;98583.95;104292;1329;22191;-35
2022/11/21 02:07:20;;;;;;;95.80;27.40;;;;;;;-6.55;100.00;98581.46;104254;1328;22495;-31
2022/11/21 02:09:48;;;;;;;82.20;23.00;;;;;;;-6.57;100.00;98573.54;104280;1334;22236;-32
2022/11/21 02:12:17;;;;;;;39.30;15.80;;;;;;;-6.61;100.00;98574.30;103684;1334;22016;-32
2022/11/21 02:14:43;;;;;;;51.50;16.80;;;;;;;-6.61;100.00;98570.70;104195;1330;22072;-35
2022/11/21 02:17:09;;;;;;;52.10;18.90;;;;;;;-6.61;100.00;98566.00;104291;1334;22107;-32
2022/11/21 02:19:44;;;;;;;49.40;18.40;;;;;;;-6.65;100.00;98558.97;104251;1333;22222;-31
2022/11/21 02:22:15;;;;;;;49.70;19.00;;;;;;;-6.66;100.00;98552.06;103841;1329;22505;-32
2022/11/21 02:24:45;;;;;;;75.00;23.00;;;;;;;-6.66;100.00;98540.04;104207;1322;24777;-31
2022/11/21 02:27:10;;;;;;;60.80;19.30;;;;;;;-6.65;100.00;98544.17;104097;1330;22153;-35
2022/11/21 02:29:37;;;;;;;47.00;16.60;;;;;;;-6.61;100.00;98544.93;104263;1328;22059;-35
2022/11/21 02:32:04;;;;;;;46.70;16.70;;;;;;;-6.59;100.00;98543.02;104054;1328;24278;-31
2022/11/21 02:34:30;;;;;;;55.90;21.60;;;;;;;-6.52;100.00;98544.11;104118;1329;22508;-32
2022/11/21 02:36:56;;;;;;;43.00;14.90;;;;;;;-6.51;100.00;98544.25;103886;1330;22510;-31
2022/11/21 02:39:25;;;;;;;60.60;19.20;;;;;;;-6.47;100.00;98543.08;103705;1336;22189;-31
2022/11/21 02:42:07;;;;;;;62.40;22.20;;;;;;;-6.41;100.00;98538.97;103691;1323;22489;-35
2022/11/21 02:44:39;;;;;;;75.00;26.40;;;;;;;-6.32;100.00;98539.54;104104;1334;22126;-31
2022/11/21 02:47:04;;;;;;;68.70;22.60;;;;;;;-6.23;100.00;98541.67;104247;1334;22520;-32
2022/11/21 02:49:37;;;;;;;71.00;24.30;;;;;;;-6.14;100.00;98538.02;104285;1334;22316;-32
2022/11/21 02:52:03;;;;;;;;;;;;;;;-6.01;100.00;98538.30;103661;1334;22947;-31
2022/11/21 02:54:29;;;;;;;60.10;19.80;;;;;;;-5.90;100.00;98535.02;104247;1333;22577;-35
2022/11/21 02:56:56;;;;;;;56.60;14.70;;;;;;;-5.77;100.00;98534.73;104173;1334;22797;-35
2022/11/21 02:59:21;;;;;;;53.80;15.80;;;;;;;-5.65;100.00;98525.65;104263;1334;22544;-34
2022/11/21 03:01:47;;;;;;;53.70;19.60;;;;;;;-5.53;100.00;98526.85;104256;1334;22222;-35
2022/11/21 03:04:13;;;;;;;64.10;16.80;;;;;;;-5.47;100.00;98514.83;103365;1327;22530;-35
2022/11/21 03:06:38;;;;;;;56.60;23.00;;;;;;;-5.39;100.00;98506.20;104207;1327;22129;-35
2022/11/21 03:09:04;;;;;;;72.00;17.40;;;;;;;-5.30;100.00;98513.02;103813;1334;22497;-37
2022/11/21 03:11:29;;;;;;;61.00;21.80;;;;;;;-5.18;100.00;98511.95;104259;1326;22469;-32
2022/11/21 03:13:55;;;;;;;61.80;18.60;;;;;;;-5.10;100.00;98508.88;104290;1334;22439;-35
2022/11/21 03:16:20;;;;;;;57.80;19.30;;;;;;;-5.06;100.00;98499.15;104307;1329;22164;-32
2022/11/21 03:18:46;;;;;;;52.80;19.70;;;;;;;-5.04;100.00;98491.81;104276;1334;23362;-35
2022/11/21 03:21:11;;;;;;;56.30;24.90;;;;;;;-5.06;100.00;98484.27;104277;1329;22024;-35
2022/11/21 03:23:37;;;;;;;68.80;24.30;;;;;;;-5.14;100.00;98476.00;104123;1326;22292;-33
2022/11/21 03:26:03;;;;;;;63.40;20.70;;;;;;;-5.23;100.00;98473.39;104281;1327;22241;-35
2022/11/21 03:28:28;;;;;;;59.20;22.10;;;;;;;-5.27;100.00;98473.03;104239;1334;22256;-35
2022/11/21 03:30:54;;;;;;;102.40;42.90;;;;;;;-5.30;100.00;98472.70;103969;1334;22555;-35
2022/11/21 03:33:19;;;;;;;72.30;23.00;;;;;;;-5.34;100.00;98463.83;103792;1334;22209;-35
2022/11/21 03:35:46;;;;;;;52.00;20.10;;;;;;;-5.36;100.00;98463.65;104130;1334;22134;-31
2022/11/21 03:38:12;;;;;;;75.40;20.30;;;;;;;-5.38;100.00;98458.21;103899;1334;510224;-35
2022/11/21 03:40:37;;;;;;;46.00;19.50;;;;;;;-5.40;100.00;98446.95;103982;1334;24276;-32
2022/11/21 03:43:04;;;;;;;62.40;21.10;;;;;;;-5.42;100.00;98446.11;104215;1329;22413;-35
2022/11/21 03:45:30;;;;;;;46.10;16.80;;;;;;;-5.44;100.00;98443.98;104231;1332;22128;-31
2022/11/21 03:47:56;;;;;;;55.90;21.10;;;;;;;-5.46;100.00;98445.90;103673;1334;22686;-44
2022/11/21 03:50:21;;;;;;;50.90;19.70;;;;;;;-5.49;100.00;98443.51;104239;1334;22017;-31
2022/11/21 03:52:47;;;;;;;58.40;16.90;;;;;;;-5.51;100.00;98442.82;104171;1334;22543;-35
2022/11/21 03:55:14;;;;;;;52.40;20.70;;;;;;;-5.55;100.00;98440.52;104024;1335;22498;-35
2022/11/21 03:57:39;;;;;;;37.60;10.90;;;;;;;-5.57;100.00;98441.52;104301;1323;22245;-33
2022/11/21 04:00:06;;;;;;;58.70;20.30;;;;;;;-5.58;100.00;98443.65;104252;1333;22224;-35
2022/11/21 04:02:31;;;;;;;57.00;20.00;;;;;;;-5.58;100.00;98452.22;103941;1327;24356;-32
2022/11/21 04:04:57;;;;;;;52.30;19.90;;;;;;;-5.57;100.00;98451.83;104054;1335;22060;-31
2022/11/21 04:07:22;;;;;;;65.30;23.30;;;;;;;-5.57;100.00;98446.41;104182;1334;22590;-35
2022/11/21 04:09:48;;;;;;;50.00;19.20;;;;;;;-5.57;100.00;98430.73;104283;1330;22207;-34
2022/11/21 04:12:14;;;;;;;74.70;24.50;;;;;;;-5.59;100.00;98426.00;104253;1330;22190;-35
2022/11/21 04:14:39;;;;;;;58.60;18.20;;;;;;;-5.59;100.00;98426.84;104149;1330;22178;-31
2022/11/21 04:17:05;;;;;;;53.60;18.40;;;;;;;-5.59;100.00;98428.41;104261;1335;22181;-32
2022/11/21 04:19:30;;;;;;;65.70;20.50;;;;;;;-5.59;100.00;98429.45;104269;1335;22138;-35
2022/11/21 04:21:56;;;;;;;48.80;13.60;;;;;;;-5.57;100.00;98423.52;104274;1323;22030;-35
2022/11/21 04:24:21;;;;;;;69.70;25.60;;;;;;;-5.56;100.00;98421.21;103443;1335;22495;-35
2022/11/21 04:26:47;;;;;;;78.60;26.50;;;;;;;-5.55;100.00;98416.10;104232;1336;22585;-31
2022/11/21 04:29:12;;;;;;;79.70;27.40;;;;;;;-5.53;100.00;98411.77;104313;1330;23797;-35
2022/11/21 04:31:38;;;;;;;106.80;53.40;;;;;;;-5.53;100.00;98403.20;104263;1334;22017;-32
2022/11/21 04:34:03;;;;;;;61.40;25.00;;;;;;;-5.53;100.00;98400.41;104247;1336;22540;-31
2022/11/21 04:36:29;;;;;;;69.40;24.60;;;;;;;-5.55;100.00;98396.34;104281;1330;22454;-32
2022/11/21 04:38:54;;;;;;;58.00;23.30;;;;;;;-5.54;100.00;98385.30;104296;1335;22215;-35
2022/11/21 04:41:20;;;;;;;71.80;25.70;;;;;;;-5.53;100.00;98389.58;104257;1331;22453;-35
2022/11/21 04:43:45;;;;;;;83.00;27.10;;;;;;;-5.48;100.00;98384.10;104066;1327;22207;-31
2022/11/21 04:46:11;;;;;;;74.00;29.90;;;;;;;-5.43;100.00;98382.88;104284;1328;24267;-35
2022/11/21 04:48:36;;;;;;;70.30;24.80;;;;;;;-5.39;100.00;98379.73;104078;1335;22334;-32
2022/11/21 04:51:02;;;;;;;51.90;21.70;;;;;;;-5.34;100.00;98380.80;104293;1335;22239;-31
2022/11/21 04:53:27;;;;;;;69.30;24.30;;;;;;;-5.31;100.00;98377.02;103734;1334;24406;-35
2022/11/21 04:55:53;;;;;;;57.20;21.00;;;;;;;-5.28;100.00;98371.56;103794;1329;22116;-35
2022/11/21 04:58:19;;;;;;;56.80;17.20;;;;;;;-5.26;100.00;98366.90;104217;1334;22184;-35
2022/11/21 05:00:44;;;;;;;65.80;21.70;;;;;;;-5.24;100.00;98366.70;104146;1335;22611;-35
2022/11/21 05:03:10;;;;;;;59.60;21.00;;;;;;;-5.21;100.00;98360.34;104222;1334;22510;-32
2022/11/21 05:05:36;;;;;;;79.10;25.30;;;;;;;-5.19;100.00;98357.69;104096;1327;24375;-34
2022/11/21 05:08:02;;;;;;;54.30;20.30;;;;;;;-5.15;100.00;98358.48;104100;1335;22527;-35
2022/11/21 05:10:27;;;;;;;51.90;19.60;;;;;;;-5.09;100.00;98361.14;104250;1333;22512;-35
2022/11/21 05:15:25;;;;;;;53.10;17.50;;;;;;;-5.00;100.00;98359.35;104239;1333;22510;-32
2022/11/21 05:17:51;;;;;;;77.50;25.90;;;;;;;-4.95;100.00;98356.89;104109;1335;22273;-35
2022/11/21 05:20:17;;;;;;;60.40;23.90;;;;;;;-4.91;100.00;98350.80;104177;1334;22534;-35
2022/11/21 05:22:48;;;;;;;55.90;22.70;;;;;;;-4.87;100.00;98354.97;104189;1313;22519;-36
2022/11/21 05:25:14;;;;;;;48.80;18.80;;;;;;;-4.82;100.00;98357.20;104182;1333;22526;-32
2022/11/21 05:27:40;;;;;;;62.30;22.60;;;;;;;-4.80;100.00;98355.61;103600;1336;25909;-36
2022/11/21 05:30:06;;;;;;;82.20;24.60;;;;;;;-4.76;100.00;98356.00;103174;1337;22272;-36
2022/11/21 05:32:32;;;;;;;71.10;25.50;;;;;;;-4.71;100.00;98354.16;104240;1335;23221;-36
2022/11/21 05:34:57;;;;;;;75.40;25.70;;;;;;;-4.67;100.00;98357.34;104219;1338;22035;-32
2022/11/21 05:37:23;;;;;;;63.70;23.00;;;;;;;-4.62;100.00;98351.03;104156;1335;22190;-32
2022/11/21 05:39:48;;;;;;;66.30;26.20;;;;;;;-4.56;100.00;98347.94;104245;1330;23157;-32
2022/11/21 05:42:14;;;;;;;65.00;24.40;;;;;;;-4.50;100.00;98352.30;104226;1319;22212;-34
2022/11/21 05:44:40;;;;;;;59.20;22.30;;;;;;;-4.46;100.00;98355.13;103874;1333;22563;-32
2022/11/21 05:47:05;;;;;;;70.70;27.00;;;;;;;-4.42;100.00;98354.27;104181;1339;22520;-36
2022/11/21 05:49:30;;;;;;;81.40;26.40;;;;;;;-4.36;100.00;98352.84;104217;1335;23773;-36
2022/11/21 05:51:56;;;;;;;84.90;32.40;;;;;;;-4.32;100.00;98351.46;104072;1340;22558;-35
2022/11/21 05:54:21;;;;;;;65.50;24.20;;;;;;;-4.29;100.00;98344.25;104268;1329;22192;-32
2022/11/21 05:56:47;;;;;;;72.90;25.30;;;;;;;-4.26;100.00;98343.69;103882;1336;22516;-36
2022/11/21 05:59:13;;;;;;;80.00;27.70;;;;;;;-4.23;100.00;98339.40;104174;1335;22790;-32
2022/11/21 06:04:08;;;;;;;44.90;16.30;;;;;;;-4.16;100.00;98329.39;104276;1334;22081;-32
2022/11/21 06:06:33;;;;;;;77.00;23.10;;;;;;;-4.11;100.00;98327.48;104259;1339;22168;-36
2022/11/21 06:08:59;;;;;;;60.90;22.00;;;;;;;-4.04;100.00;98325.02;104188;1336;22495;-36
2022/11/21 06:11:25;;;;;;;145.90;42.40;;;;;;;-3.97;100.00;98328.13;103852;1333;22619;-36
2022/11/21 06:13:51;;;;;;;180.20;59.80;;;;;;;-3.90;100.00;98324.69;104152;1335;23271;-36
2022/11/21 06:16:18;;;;;;;150.50;49.60;;;;;;;-3.82;100.00;98321.73;103302;1334;24596;-32
2022/11/21 06:18:45;;;;;;;95.00;33.70;;;;;;;-3.76;100.00;98319.80;103697;1320;22545;-32
2022/11/21 06:21:12;;;;;;;88.60;32.40;;;;;;;-3.67;100.00;98323.04;104146;1331;22374;-36
2022/11/21 06:23:37;;;;;;;78.90;28.70;;;;;;;-3.60;100.00;98321.07;104063;1338;22515;-33
2022/11/21 06:26:04;;;;;;;70.70;25.30;;;;;;;-3.51;100.00;98317.66;103419;1335;22511;-36
2022/11/21 06:28:32;;;;;;;80.30;31.30;;;;;;;-3.43;100.00;98316.95;103981;1336;22374;-36
2022/11/21 06:31:02;;;;;;;99.40;33.20;;;;;;;-3.33;100.00;98321.80;103836;1336;22511;-37
2022/11/21 06:33:28;;;;;;;87.00;31.90;;;;;;;-3.21;100.00;98322.70;103906;1335;22497;-36
2022/11/21 06:35:54;;;;;;;69.80;28.70;;;;;;;-3.11;100.00;98321.08;104253;1334;22179;-36
2022/11/21 06:38:19;;;;;;;48.00;19.10;;;;;;;-2.99;100.00;98320.59;104261;1335;22512;-34
2022/11/21 06:40:45;;;;;;;57.20;19.10;;;;;;;-2.87;100.00;98323.67;103759;1339;22656;-36
2022/11/21 06:43:11;;;;;;;60.40;22.30;;;;;;;-2.77;100.00;98316.86;103856;1336;22565;-36
2022/11/21 06:45:36;;;;;;;54.40;18.80;;;;;;;-2.72;100.00;98311.11;104232;1336;22047;-36
2022/11/21 06:48:02;;;;;;;33.80;15.80;;;;;;;-2.63;100.00;98307.98;104091;1337;23915;-36
2022/11/21 06:50:30;;;;;;;36.50;15.60;;;;;;;-2.55;100.00;98305.55;104106;1335;22526;-33
2022/11/21 06:52:57;;;;;;;38.30;18.80;;;;;;;-2.49;100.00;98292.69;103762;1336;22062;-33
2022/11/21 06:55:25;;;;;;;53.60;21.00;;;;;;;-2.43;100.00;98295.61;104205;1335;22592;-33
2022/11/21 06:57:50;;;;;;;39.40;16.30;;;;;;;-2.37;100.00;98293.16;103235;1337;22637;-32
2022/11/21 07:00:17;;;;;;;61.50;24.30;;;;;;;-2.27;100.00;98289.65;103890;1336;22181;-36
2022/11/21 07:02:43;;;;;;;43.80;18.10;;;;;;;-2.17;100.00;98287.81;104155;1329;22327;-36
2022/11/21 07:05:08;;;;;;;50.00;20.00;;;;;;;-2.08;100.00;98285.73;104229;1338;22547;-32
2022/11/21 07:07:34;;;;;;;36.40;12.80;;;;;;;-2.01;100.00;98280.33;104263;1339;22513;-32
2022/11/21 07:09:59;;;;;;;40.70;13.90;;;;;;;-1.92;100.00;98271.93;103626;1333;22164;-40
2022/11/21 07:14:54;;;;;;;28.90;13.10;;;;;;;-1.79;100.00;98265.45;104017;1338;22499;-36
2022/11/21 07:17:19;;;;;;;47.90;18.90;;;;;;;-1.69;100.00;98266.92;104248;1335;22218;-36
2022/11/21 07:19:46;;;;;;;64.00;25.70;;;;;;;-1.59;100.00;98263.16;104271;1336;22631;-33
2022/11/21 07:22:11;;;;;;;55.40;19.70;;;;;;;-1.49;100.00;98256.41;104270;1340;22307;-37
2022/11/21 07:24:37;;;;;;;61.30;20.40;;;;;;;-1.37;100.00;98259.27;104067;1326;22506;-36
2022/11/21 07:27:02;;;;;;;38.10;16.60;;;;;;;-1.24;100.00;98257.18;104247;1333;22355;-36
2022/11/21 07:29:28;;;;;;;42.00;15.90;;;;;;;-1.12;100.00;98250.48;104286;1334;22155;-33
2022/11/21 07:31:54;;;;;;;30.00;13.60;;;;;;;-0.99;100.00;98250.80;104241;1333;22281;-37
2022/11/21 07:34:19;;;;;;;30.10;14.30;;;;;;;-0.79;100.00;98249.25;103790;1333;22066;-33
2022/11/21 07:36:45;;;;;;;29.20;12.70;;;;;;;-0.61;100.00;98243.01;104076;1336;22539;-33
2022/11/21 07:39:10;;;;;;;30.30;13.00;;;;;;;-0.44;100.00;98236.92;104267;1330;22188;-33
2022/11/21 07:41:36;;;;;;;28.50;13.70;;;;;;;-0.28;100.00;98226.26;104242;1320;22411;-33
2022/11/21 07:44:01;;;;;;;27.60;12.70;;;;;;;-0.17;100.00;98217.51;104259;1335;22187;-33
2022/11/21 07:46:27;;;;;;;32.80;12.20;;;;;;;-0.03;100.00;98209.17;104175;1335;22542;-33
2022/11/21 07:48:52;;;;;;;26.90;12.40;;;;;;;0.05;100.00;98207.48;104185;1334;22495;-37
2022/11/21 07:51:18;;;;;;;19.60;10.00;;;;;;;0.13;100.00;98210.12;104195;1326;22508;-33
2022/11/21 07:53:43;;;;;;;29.20;11.00;;;;;;;0.25;100.00;98211.29;104241;1335;22279;-33
2022/11/21 07:56:09;;;;;;;24.70;12.40;;;;;;;0.34;100.00;98211.93;104087;1335;22574;-37
2022/11/21 07:58:34;;;;;;;26.40;11.20;;;;;;;0.53;100.00;98210.17;104249;1335;23824;-36
2022/11/21 08:01:04;;;;;;;25.50;10.20;;;;;;;0.54;100.00;98208.09;104277;1326;22211;-36
2022/11/21 08:03:30;;;;;;;31.50;10.30;;;;;;;0.57;100.00;98206.91;104258;1335;22431;-37
2022/11/21 08:05:55;;;;;;;24.70;11.40;;;;;;;0.68;100.00;98219.14;103591;1335;22500;-34
2022/11/21 08:08:21;;;;;;;31.70;14.60;;;;;;;0.76;100.00;98218.66;104262;1321;22523;-36
2022/11/21 08:10:47;;;;;;;26.00;11.20;;;;;;;0.81;100.00;98215.79;104215;1334;22147;-33
2022/11/21 08:13:12;;;;;;;25.70;11.40;;;;;;;0.92;100.00;98219.38;104032;1335;22510;-33
2022/11/21 08:15:38;;;;;;;26.50;12.00;;;;;;;1.00;100.00;98216.27;104235;1335;22084;-36
2022/11/21 08:18:08;;;;;;;31.70;14.00;;;;;;;1.14;100.00;98212.61;104266;1330;22520;-36
2022/11/21 08:20:34;;;;;;;26.60;12.20;;;;;;;1.25;100.00;98222.26;104265;1320;22531;-33
2022/11/21 08:22:59;;;;;;;21.30;9.70;;;;;;;1.34;100.00;98228.59;103959;1335;22558;-37
2022/11/21 08:25:25;;;;;;;22.00;11.20;;;;;;;1.40;100.00;98223.90;104223;1333;22548;-37
2022/11/21 08:27:50;;;;;;;16.40;8.60;;;;;;;1.51;100.00;98215.48;103999;1335;22520;-33
2022/11/21 08:30:16;;;;;;;27.90;12.80;;;;;;;1.62;100.00;98218.70;104244;1335;22487;-33
2022/11/21 08:32:41;;;;;;;23.60;11.80;;;;;;;1.67;100.00;98217.30;104252;1335;22235;-36
2022/11/21 08:35:08;;;;;;;23.30;10.80;;;;;;;1.74;100.00;98210.17;104230;1333;22372;-37
2022/11/21 08:37:33;;;;;;;19.90;7.60;;;;;;;1.72;100.00;98204.33;104230;1334;22084;-37
2022/11/21 08:39:59;;;;;;;23.70;12.10;;;;;;;1.85;100.00;98199.35;104165;1334;22511;-35
2022/11/21 08:42:25;;;;;;;31.40;14.80;;;;;;;1.92;100.00;98195.63;104068;1329;22519;-33
2022/11/21 08:44:50;;;;;;;19.90;11.90;;;;;;;1.97;100.00;98193.16;103621;1334;23216;-33
2022/11/21 08:47:16;;;;;;;19.20;10.30;;;;;;;2.07;100.00;98195.67;103937;1334;23992;-33
2022/11/21 08:49:41;;;;;;;36.20;16.80;;;;;;;2.16;100.00;98198.60;104163;1335;21999;-32
2022/11/21 08:52:07;;;;;;;33.30;14.00;;;;;;;2.24;100.00;98195.19;104281;1334;23827;-33
2022/11/21 08:54:32;;;;;;;25.50;13.50;;;;;;;2.24;100.00;98193.96;104038;1334;22499;-36
2022/11/21 08:56:58;;;;;;;28.30;12.50;;;;;;;2.31;100.00;98191.22;104232;1328;22184;-37
2022/11/21 08:59:23;;;;;;;36.00;15.30;;;;;;;2.35;100.00;98195.94;104253;1334;24151;-33
2022/11/21 09:01:51;;;;;;;24.10;13.60;;;;;;;2.45;100.00;98195.45;104141;1334;22295;-33
2022/11/21 09:04:17;;;;;;;24.70;11.80;;;;;;;2.48;100.00;98192.98;104215;1334;22530;-33
2022/11/21 09:06:43;;;;;;;26.00;10.60;;;;;;;2.47;100.00;98186.95;104300;1330;22203;-36
2022/11/21 09:09:08;;;;;;;25.60;11.70;;;;;;;2.47;100.00;98186.73;104253;1334;22040;-37
2022/11/21 09:11:34;;;;;;;21.20;9.70;;;;;;;2.52;100.00;98188.77;103783;1327;22243;-37
2022/11/21 09:18:58;;;;;;;29.60;14.30;;;;;;;2.56;100.00;98189.30;103882;1334;22514;-36
2022/11/21 09:21:23;;;;;;;23.40;13.60;;;;;;;2.64;100.00;98188.54;103872;1327;22228;-33
2022/11/21 09:23:49;;;;;;;24.70;12.80;;;;;;;2.67;100.00;98186.52;104239;1335;22508;-36
2022/11/21 09:26:14;;;;;;;25.00;12.60;;;;;;;2.59;100.00;98183.46;104254;1334;22750;-30
2022/11/21 09:28:40;;;;;;;28.10;12.60;;;;;;;2.64;100.00;98178.77;104193;1335;22414;-31
2022/11/21 09:31:06;;;;;;;17.20;9.60;;;;;;;2.63;100.00;98181.59;103959;1334;22524;-32
2022/11/21 09:33:31;;;;;;;26.20;13.30;;;;;;;2.58;100.00;98186.89;104194;1334;22563;-31
2022/11/21 09:35:58;;;;;;;31.40;14.60;;;;;;;2.61;100.00;98185.74;104238;1328;24528;-31
2022/11/21 09:38:25;;;;;;;27.60;12.60;;;;;;;2.60;100.00;98182.93;104257;1330;22168;-32
2022/11/21 09:40:51;;;;;;;22.70;12.30;;;;;;;2.64;100.00;98180.34;103882;1330;22507;-32
2022/11/21 09:43:25;;;;;;;22.50;11.20;;;;;;;2.67;100.00;98180.23;104239;1325;22138;-32
2022/11/21 09:45:53;;;;;;;30.10;16.50;;;;;;;2.73;100.00;98175.80;103864;1327;22590;-35
2022/11/21 09:48:23;;;;;;;66.40;29.40;;;;;;;2.73;100.00;98177.20;104135;1330;22346;-32
2022/11/21 09:50:52;;;;;;;54.50;23.80;;;;;;;2.80;100.00;98176.04;104153;1330;22461;-32
2022/11/21 09:53:20;;;;;;;30.20;13.10;;;;;;;2.91;100.00;98171.44;104251;1334;22174;-35
2022/11/21 09:55:48;;;;;;;22.40;11.30;;;;;;;3.10;100.00;98171.88;104217;1330;22506;-35
2022/11/21 09:58:19;;;;;;;41.30;21.00;;;;;;;3.16;100.00;98171.73;104294;1335;22609;-35
2022/11/21 10:00:44;;;;;;;29.00;16.00;;;;;;;3.29;100.00;98169.49;104069;1320;22528;-32
2022/11/21 10:06:19;;;;;;;38.50;20.20;;;;;;;3.32;100.00;98162.40;103447;1343;544975;-31
2022/11/21 10:08:54;;;;;;;22.90;9.90;;;;;;;3.36;100.00;98164.58;103785;1337;22196;-31
2022/11/21 10:11:24;;;;;;;;;;;;;;;3.42;100.00;98158.88;103672;1345;22992;-32
2022/11/21 10:13:56;;;;;;;64.40;28.20;;;;;;;3.51;100.00;98157.10;103730;1342;22524;-35
2022/11/21 10:16:29;;;;;;;37.50;14.10;;;;;;;3.51;100.00;98156.48;103766;1345;22074;-32
2022/11/21 10:19:00;;;;;;;27.90;13.80;;;;;;;3.53;100.00;98154.09;102945;1345;483399;-35
2022/11/21 10:21:38;;;;;;;26.20;11.80;;;;;;;3.58;100.00;98154.52;103923;1334;22155;-35
2022/11/21 10:24:11;;;;;;;18.80;8.80;;;;;;;3.64;100.00;98153.80;103908;1337;22540;-31
2022/11/21 10:26:41;;;;;;;19.80;11.70;;;;;;;3.69;100.00;98153.98;103774;1342;22542;-32
2022/11/21 10:29:10;;;;;;;23.80;13.80;;;;;;;3.74;100.00;98152.34;103961;1345;22542;-32
2022/11/21 10:31:37;;;;;;;35.40;15.40;;;;;;;3.76;100.00;98149.98;103926;1344;22353;-32
2022/11/21 10:34:09;;;;;;;19.40;9.20;;;;;;;3.82;100.00;98150.25;103726;1342;22523;-35
2022/11/21 10:36:36;;;;;;;24.50;12.00;;;;;;;3.87;100.00;98151.83;103720;1335;22580;-35
2022/11/21 10:39:06;;;;;;;16.40;8.10;;;;;;;4.00;100.00;98149.21;103523;1342;22453;-31
2022/11/21 10:41:37;;;;;;;19.10;10.30;;;;;;;4.04;100.00;98146.04;103522;1342;25392;-35
2022/11/21 10:46:37;;;;;;;24.60;12.70;;;;;;;4.07;100.00;98140.92;103943;1328;23264;-34
2022/11/21 10:49:03;;;;;;;16.90;10.00;;;;;;;4.11;100.00;98145.14;103931;1342;22177;-35
2022/11/21 10:51:35;;;;;;;21.30;12.00;;;;;;;4.18;100.00;98141.50;103796;1337;22247;-35
2022/11/21 10:56:32;;;;;;;18.20;10.00;;;;;;;4.30;100.00;98144.70;103857;1334;22158;-35
2022/11/21 10:58:58;;;;;;;20.50;6.10;;;;;;;4.40;100.00;98143.35;103926;1342;22106;-32
2022/11/21 11:01:30;;;;;;;21.50;8.90;;;;;;;4.48;100.00;98139.55;103932;1335;22021;-35
2022/11/21 11:04:11;;;;;;;17.20;10.70;;;;;;;4.91;99.86;98137.17;103901;1342;22505;-38
2022/11/21 11:06:37;;;;;;;13.30;7.50;;;;;;;5.33;99.34;98144.27;103759;1334;22497;-38
2022/11/21 11:09:03;;;;;;;21.70;10.80;;;;;;;5.64;97.79;98139.27;103352;1334;22594;-37
2022/11/21 11:11:28;;;;;;;13.40;8.30;;;;;;;6.02;96.46;98135.43;103939;1334;22076;-35
2022/11/21 11:13:57;;;;;;;24.60;12.00;;;;;;;6.42;93.58;98133.63;103850;1334;22188;-38
2022/11/21 11:16:23;;;;;;;21.40;7.90;;;;;;;6.88;92.59;98135.09;103901;1341;22200;-38
2022/11/21 11:19:22;;;;;;;15.90;9.40;;;;;;;7.28;89.42;98140.08;103238;1340;22535;-38
2022/11/21 11:21:48;;;;;;;15.00;6.90;;;;;;;7.69;87.16;98132.84;103898;1342;22209;-35